createdAt,value
2019-02-28T00:01:25.552Z,94891.80
2019-02-28T00:03:58.014Z,94891.56
2019-02-28T00:06:26.126Z,94887.94
2019-02-28T00:08:55.487Z,94894.92
2019-02-28T00:11:24.876Z,94889.44
2019-02-28T00:13:56.008Z,94893.98
2019-02-28T00:16:25.424Z,94891.66
2019-02-28T00:18:54.823Z,94886.76
2019-02-28T00:21:24.160Z,94886.52
2019-02-28T00:23:57.288Z,94885.13
2019-02-28T00:26:24.656Z,94882.32
2019-02-28T00:28:56.932Z,94878.95
2019-02-28T00:31:25.160Z,94879.28
2019-02-28T00:33:54.545Z,94881.48
2019-02-28T00:36:23.925Z,94884.05
2019-02-28T00:38:53.712Z,94881.97
2019-02-28T00:41:23.095Z,94875.44
2019-02-28T00:43:52.465Z,94877.55
2019-02-28T00:46:21.878Z,94875.91
2019-02-28T00:51:38.367Z,94877.41
2019-02-28T00:54:08.656Z,94873.80
2019-02-28T00:56:38.690Z,94871.83
2019-02-28T00:59:08.034Z,94869.39
2019-02-28T01:01:37.452Z,94870.08
2019-02-28T01:04:06.853Z,94869.36
2019-02-28T01:06:36.211Z,94863.37
2019-02-28T01:09:07.098Z,94863.50
2019-02-28T01:11:36.515Z,94858.78
2019-02-28T01:14:05.998Z,94856.10
2019-02-28T01:16:35.348Z,94857.63
2019-02-28T01:19:08.731Z,94856.09
2019-02-28T01:21:35.861Z,94852.02
2019-02-28T01:24:05.281Z,94857.47
2019-02-28T01:26:34.636Z,94854.81
2019-02-28T01:29:03.998Z,94849.69
2019-02-28T01:31:33.348Z,94848.86
2019-02-28T01:34:02.716Z,94852.34
2019-02-28T01:36:32.062Z,94843.38
2019-02-28T01:39:01.486Z,94838.84
2019-02-28T01:41:30.857Z,94838.48
2019-02-28T01:44:01.743Z,94836.97
2019-02-28T01:46:31.389Z,94838.36
2019-02-28T01:49:00.722Z,94837.53
2019-02-28T01:51:35.717Z,94835.20
2019-02-28T01:54:01.391Z,94826.72
2019-02-28T01:56:30.753Z,94826.52
2019-02-28T01:59:00.094Z,94827.67
2019-02-28T02:01:31.008Z,94826.16
2019-02-28T02:04:00.662Z,94830.47
2019-02-28T02:06:29.967Z,94829.88
2019-02-28T02:08:59.354Z,94832.80
2019-02-28T02:11:28.715Z,94832.64
2019-02-28T02:13:58.029Z,94834.64
2019-02-28T02:16:27.851Z,94829.16
2019-02-28T02:18:57.350Z,94838.25
2019-02-28T02:21:26.722Z,94839.41
2019-02-28T02:23:56.103Z,94836.64
2019-02-28T02:26:25.450Z,94834.31
2019-02-28T02:28:54.833Z,94836.88
2019-02-28T02:31:28.919Z,94830.56
2019-02-28T02:33:55.361Z,94828.95
2019-02-28T02:36:24.704Z,94830.32
2019-02-28T02:38:54.080Z,94827.43
2019-02-28T02:41:23.458Z,94826.27
2019-02-28T02:43:54.970Z,94815.19
2019-02-28T02:46:23.950Z,94810.86
2019-02-28T02:48:53.296Z,94803.18
2019-02-28T02:51:22.613Z,94802.85
2019-02-28T02:53:51.965Z,94806.70
2019-02-28T02:56:22.204Z,94806.91
2019-02-28T02:58:51.568Z,94804.13
2019-02-28T03:01:23.144Z,94799.45
2019-02-28T03:03:52.049Z,94794.36
2019-02-28T03:06:21.430Z,94802.28
2019-02-28T03:08:50.765Z,94796.36
2019-02-28T03:11:20.185Z,94795.19
2019-02-28T03:13:49.522Z,94798.23
2019-02-28T03:16:18.922Z,94798.34
2019-02-28T03:18:48.422Z,94799.98
2019-02-28T03:21:17.831Z,94800.80
2019-02-28T03:23:47.237Z,94793.55
2019-02-28T03:26:16.649Z,94789.92
2019-02-28T03:28:46.043Z,94780.83
2019-02-28T03:31:15.974Z,94785.95
2019-02-28T03:33:45.497Z,94784.56
2019-02-28T03:36:16.704Z,94776.42
2019-02-28T03:38:49.772Z,94783.52
2019-02-28T03:41:18.229Z,94788.08
2019-02-28T03:43:47.837Z,94791.23
2019-02-28T03:46:17.190Z,94793.31
2019-02-28T03:48:46.574Z,94789.35
2019-02-28T03:51:15.920Z,94794.23
2019-02-28T03:53:45.312Z,94792.03
2019-02-28T03:56:15.991Z,94795.16
2019-02-28T03:58:45.490Z,94789.80
2019-02-28T04:01:14.839Z,94784.44
2019-02-28T04:03:44.225Z,94782.09
2019-02-28T04:06:13.544Z,94771.59
2019-02-28T04:08:42.940Z,94776.04
2019-02-28T04:11:12.323Z,94768.56
2019-02-28T04:13:41.695Z,94762.28
2019-02-28T04:16:11.070Z,94767.76
2019-02-28T04:18:46.123Z,94763.44
2019-02-28T04:21:12.175Z,94765.37
2019-02-28T04:23:41.675Z,94769.09
2019-02-28T04:26:11.045Z,94763.24
2019-02-28T04:28:40.501Z,94762.40
2019-02-28T04:31:10.534Z,94764.59
2019-02-28T04:33:39.875Z,94763.88
2019-02-28T04:36:09.252Z,94763.75
2019-02-28T04:38:38.575Z,94763.63
2019-02-28T04:41:07.914Z,94766.67
2019-02-28T04:43:37.265Z,94763.63
2019-02-28T04:46:06.616Z,94762.78
2019-02-28T04:48:36.019Z,94763.38
2019-02-28T04:51:05.768Z,94760.46
2019-02-28T04:53:35.901Z,94766.27
2019-02-28T04:56:11.010Z,94771.42
2019-02-28T04:58:36.381Z,94766.38
2019-02-28T05:01:05.809Z,94769.43
2019-02-28T05:03:35.169Z,94769.86
2019-02-28T05:06:04.518Z,94775.33
2019-02-28T05:08:38.640Z,94772.16
2019-02-28T05:11:05.041Z,94764.97
2019-02-28T05:13:34.463Z,94764.50
2019-02-28T05:16:03.827Z,94766.38
2019-02-28T05:18:33.195Z,94764.60
2019-02-28T05:21:02.675Z,94762.89
2019-02-28T05:23:35.838Z,94755.09
2019-02-28T05:26:03.139Z,94760.91
2019-02-28T05:28:32.553Z,94761.50
2019-02-28T05:31:01.930Z,94762.34
2019-02-28T05:33:31.269Z,94764.66
2019-02-28T05:36:04.060Z,94770.87
2019-02-28T05:38:31.731Z,94772.63
2019-02-28T05:41:01.096Z,94775.31
2019-02-28T05:43:32.194Z,94779.05
2019-02-28T05:46:01.540Z,94778.53
2019-02-28T05:48:30.885Z,94780.73
2019-02-28T05:51:00.354Z,94785.05
2019-02-28T05:53:29.985Z,94792.09
2019-02-28T05:56:00.019Z,94796.41
2019-02-28T05:58:29.518Z,94800.62
2019-02-28T06:00:58.939Z,94802.50
2019-02-28T06:03:29.562Z,94804.02
2019-02-28T06:05:59.444Z,94807.44
2019-02-28T06:08:28.806Z,94808.72
2019-02-28T06:11:00.671Z,94808.27
2019-02-28T06:13:29.250Z,94814.22
2019-02-28T06:15:58.623Z,94824.58
2019-02-28T06:18:32.535Z,94822.39
2019-02-28T06:20:59.074Z,94826.25
2019-02-28T06:23:28.437Z,94829.52
2019-02-28T06:25:59.332Z,94831.73
2019-02-28T06:28:31.044Z,94842.92
2019-02-28T06:31:00.607Z,94843.62
2019-02-28T06:33:30.599Z,94828.34
2019-02-28T06:36:01.097Z,94834.16
2019-02-28T06:38:30.459Z,94827.72
2019-02-28T06:40:59.847Z,94822.69
2019-02-28T06:43:29.213Z,94825.23
2019-02-28T06:45:58.603Z,94822.66
2019-02-28T06:48:28.174Z,94824.63
2019-02-28T06:50:57.518Z,94816.44
2019-02-28T06:53:30.750Z,94822.47
2019-02-28T06:55:59.335Z,94831.69
2019-02-28T06:58:30.468Z,94818.39
2019-02-28T07:00:59.837Z,94827.25
2019-02-28T07:03:29.201Z,94820.09
2019-02-28T07:06:01.052Z,94831.55
2019-02-28T07:08:29.613Z,94828.37
2019-02-28T07:10:59.012Z,94819.81
2019-02-28T07:13:28.383Z,94809.75
2019-02-28T07:15:59.123Z,94823.14
2019-02-28T07:18:28.832Z,94791.59
2019-02-28T07:20:58.287Z,94796.45
2019-02-28T07:23:29.997Z,94793.66
2019-02-28T07:25:58.743Z,94776.80
2019-02-28T07:28:28.323Z,94798.08
2019-02-28T07:30:57.683Z,94809.73
2019-02-28T07:33:27.080Z,94765.17
2019-02-28T07:35:56.471Z,94793.75
2019-02-28T07:38:28.841Z,94778.62
2019-02-28T07:40:56.976Z,94791.81
2019-02-28T07:43:26.361Z,94790.63
2019-02-28T07:45:55.785Z,94788.03
2019-02-28T07:48:28.617Z,94769.52
2019-02-28T07:50:59.321Z,94769.59
2019-02-28T07:53:28.659Z,94816.17
2019-02-28T07:55:58.079Z,94796.69
2019-02-28T07:58:29.872Z,94774.34
2019-02-28T08:00:58.579Z,94790.63
2019-02-28T08:03:28.012Z,94782.70
2019-02-28T08:05:57.536Z,94777.80
2019-02-28T08:08:27.038Z,94790.98
2019-02-28T08:10:56.938Z,94784.83
2019-02-28T08:13:26.346Z,94787.89
2019-02-28T08:15:56.831Z,94784.69
2019-02-28T08:18:26.800Z,94786.55
2019-02-28T08:20:56.173Z,94793.86
2019-02-28T08:23:29.949Z,94803.89
2019-02-28T08:25:56.685Z,94803.69
2019-02-28T08:28:29.627Z,94789.65
2019-02-28T08:30:59.048Z,94785.00
2019-02-28T08:33:28.409Z,94781.42
2019-02-28T08:35:57.737Z,94786.83
2019-02-28T08:38:30.077Z,94771.25
2019-02-28T08:40:58.188Z,94779.45
2019-02-28T08:43:27.598Z,94775.10
2019-02-28T08:45:56.984Z,94758.74
2019-02-28T08:48:31.575Z,94760.23
2019-02-28T08:50:57.494Z,94748.59
2019-02-28T08:53:26.850Z,94766.48
2019-02-28T08:55:56.230Z,94734.63
2019-02-28T08:58:25.617Z,94726.70
2019-02-28T09:00:55.049Z,94733.37
2019-02-28T09:03:27.353Z,94726.73
2019-02-28T09:05:55.551Z,94722.72
2019-02-28T09:08:25.500Z,94736.96
2019-02-28T09:10:55.481Z,94744.59
2019-02-28T09:13:25.117Z,94714.63
2019-02-28T09:15:54.685Z,94730.38
2019-02-28T09:18:24.071Z,94724.20
2019-02-28T09:20:53.438Z,94717.72
2019-02-28T09:23:23.569Z,94709.89
2019-02-28T09:25:53.360Z,94713.42
2019-02-28T09:28:24.286Z,94716.41
2019-02-28T09:30:53.883Z,94711.00
2019-02-28T09:33:24.009Z,94706.77
2019-02-28T09:35:53.477Z,94713.02
2019-02-28T09:38:22.880Z,94715.50
2019-02-28T09:40:52.493Z,94705.98
2019-02-28T09:43:23.852Z,94705.73
2019-02-28T09:45:53.095Z,94706.41
2019-02-28T09:48:22.536Z,94706.31
2019-02-28T09:50:58.009Z,94700.12
2019-02-28T09:53:23.091Z,94694.61
2019-02-28T09:55:52.459Z,94686.36
2019-02-28T09:58:21.828Z,94683.69
2019-02-28T10:00:51.235Z,94685.40
2019-02-28T10:03:20.703Z,94674.22
2019-02-28T10:05:50.090Z,94680.72
2019-02-28T10:08:19.447Z,94672.73
2019-02-28T10:10:48.805Z,94674.81
2019-02-28T10:13:18.531Z,94678.12
2019-02-28T10:15:47.904Z,94673.81
2019-02-28T10:18:17.328Z,94664.04
2019-02-28T10:20:46.713Z,94667.44
2019-02-28T10:23:18.446Z,94662.83
2019-02-28T10:25:47.190Z,94652.90
2019-02-28T10:28:17.260Z,94646.67
2019-02-28T10:30:47.252Z,94648.89
2019-02-28T10:33:18.098Z,94645.05
2019-02-28T10:35:47.547Z,94633.55
2019-02-28T10:38:16.986Z,94632.20
2019-02-28T10:40:46.377Z,94616.00
2019-02-28T10:43:16.473Z,94606.93
2019-02-28T10:45:46.151Z,94612.09
2019-02-28T10:48:15.741Z,94602.50
2019-02-28T10:50:45.151Z,94599.52
2019-02-28T10:53:14.541Z,94582.34
2019-02-28T10:55:44.037Z,94589.05
2019-02-28T10:58:15.476Z,94574.95
2019-02-28T11:00:45.164Z,94571.22
2019-02-28T11:03:14.585Z,94566.24
2019-02-28T11:05:46.243Z,94558.41
2019-02-28T11:08:18.825Z,94572.80
2019-02-28T11:10:47.676Z,94565.96
2019-02-28T11:13:18.973Z,94563.77
2019-02-28T11:15:49.406Z,94550.83
2019-02-28T11:18:19.101Z,94545.19
2019-02-28T11:20:48.556Z,94546.19
2019-02-28T11:23:18.159Z,94532.62
2019-02-28T11:25:47.561Z,94538.55
2019-02-28T11:28:17.613Z,94532.78
2019-02-28T11:30:48.002Z,94511.08
2019-02-28T11:33:17.550Z,94529.39
2019-02-28T11:35:47.181Z,94510.17
2019-02-28T11:38:20.498Z,94508.91
2019-02-28T11:40:56.729Z,94506.55
2019-02-28T11:43:18.861Z,94500.91
2019-02-28T11:45:48.400Z,94499.70
2019-02-28T11:48:20.128Z,94499.24
2019-02-28T11:50:49.055Z,94488.29
2019-02-28T11:53:19.199Z,94481.70
2019-02-28T11:55:48.791Z,94475.24
2019-02-28T11:58:18.860Z,94472.14
2019-02-28T12:00:48.356Z,94472.86
2019-02-28T12:03:18.189Z,94457.16
2019-02-28T12:05:50.736Z,94456.86
2019-02-28T12:08:18.741Z,94438.46
2019-02-28T12:10:48.192Z,94441.28
2019-02-28T12:13:19.600Z,94438.70
2019-02-28T12:15:48.689Z,94433.34
2019-02-28T12:18:18.091Z,94437.02
2019-02-28T12:20:47.480Z,94429.55
2019-02-28T12:23:16.948Z,94418.00
2019-02-28T12:25:46.845Z,94415.39
2019-02-28T12:28:16.266Z,94407.80
2019-02-28T12:30:45.699Z,94414.25
2019-02-28T12:33:15.455Z,94416.61
2019-02-28T12:35:46.214Z,94407.64
2019-02-28T12:38:17.501Z,94398.01
2019-02-28T12:40:49.308Z,94400.26
2019-02-28T12:43:18.004Z,94395.88
2019-02-28T12:45:47.658Z,94387.40
2019-02-28T12:48:17.052Z,94373.70
2019-02-28T12:50:46.465Z,94381.28
2019-02-28T12:53:15.895Z,94377.84
2019-02-28T12:55:45.323Z,94374.04
2019-02-28T12:58:14.796Z,94372.05
2019-02-28T13:00:44.201Z,94360.70
2019-02-28T13:03:19.161Z,94366.73
2019-02-28T13:05:48.007Z,94362.16
2019-02-28T13:08:16.331Z,94355.64
2019-02-28T13:10:45.690Z,94347.16
2019-02-28T13:13:15.060Z,94349.35
2019-02-28T13:15:45.549Z,94354.09
2019-02-28T13:18:15.490Z,94331.47
2019-02-28T13:20:45.211Z,94332.57
2019-02-28T13:23:17.047Z,94340.61
2019-02-28T13:25:45.782Z,94331.66
2019-02-28T13:28:17.685Z,94313.84
2019-02-28T13:30:50.214Z,94311.37
2019-02-28T13:33:17.411Z,94311.81
2019-02-28T13:35:47.737Z,94304.27
2019-02-28T13:38:19.066Z,94292.61
2019-02-28T13:40:48.923Z,94286.86
2019-02-28T13:43:21.118Z,94297.44
2019-02-28T13:45:50.555Z,94295.09
2019-02-28T13:48:25.961Z,94293.17
2019-02-28T13:50:51.864Z,94295.80
2019-02-28T13:53:23.291Z,94282.11
2019-02-28T13:55:52.683Z,94286.88
2019-02-28T13:58:23.577Z,94290.84
2019-02-28T14:00:52.996Z,94267.49
2019-02-28T14:03:22.404Z,94270.85
2019-02-28T14:05:51.937Z,94260.65
2019-02-28T14:08:21.317Z,94266.27
2019-02-28T14:10:51.437Z,94269.23
2019-02-28T14:13:20.938Z,94257.84
2019-02-28T14:15:52.416Z,94250.00
2019-02-28T14:18:21.819Z,94260.19
2019-02-28T14:20:51.172Z,94263.49
2019-02-28T14:23:21.603Z,94263.26
2019-02-28T14:25:51.196Z,94253.95
2019-02-28T14:28:20.631Z,94274.78
2019-02-28T14:30:50.038Z,94258.07
2019-02-28T14:33:20.785Z,94242.47
2019-02-28T14:35:50.285Z,94255.64
2019-02-28T14:38:19.629Z,94248.16
2019-02-28T14:40:49.569Z,94251.75
2019-02-28T14:43:20.774Z,94242.34
2019-02-28T14:45:50.243Z,94241.78
2019-02-28T14:48:19.602Z,94239.78
2019-02-28T14:50:50.677Z,94245.03
2019-02-28T14:53:20.044Z,94242.28
2019-02-28T14:55:49.396Z,94224.64
2019-02-28T14:58:21.237Z,94242.88
2019-02-28T15:00:49.994Z,94244.13
2019-02-28T15:03:19.809Z,94219.52
2019-02-28T15:05:49.192Z,94232.56
2019-02-28T15:08:18.858Z,94225.70
2019-02-28T15:10:48.818Z,94239.37
2019-02-28T15:13:18.450Z,94229.69
2019-02-28T15:15:49.592Z,94225.23
2019-02-28T15:18:19.014Z,94211.38
2019-02-28T15:20:48.425Z,94214.85
2019-02-28T15:23:17.869Z,94201.82
2019-02-28T15:25:47.288Z,94215.42
2019-02-28T15:28:16.711Z,94205.77
2019-02-28T15:30:46.127Z,94205.77
2019-02-28T15:33:15.567Z,94203.06
2019-02-28T15:35:46.543Z,94202.06
2019-02-28T15:38:16.308Z,94194.82
2019-02-28T15:40:45.845Z,94199.14
2019-02-28T15:43:18.213Z,94197.32
2019-02-28T15:45:46.537Z,94193.10
2019-02-28T15:48:15.966Z,94201.05
2019-02-28T15:50:51.158Z,94199.44
2019-02-28T15:53:16.564Z,94196.13
2019-02-28T15:55:46.242Z,94201.05
2019-02-28T15:58:16.702Z,94200.37
2019-02-28T16:00:46.360Z,94197.36
2019-02-28T16:03:16.659Z,94192.66
2019-02-28T16:05:47.029Z,94197.11
2019-02-28T16:08:16.689Z,94194.02
2019-02-28T16:10:53.288Z,94195.33
2019-02-28T16:13:17.481Z,94192.16
2019-02-28T16:15:50.009Z,94199.79
2019-02-28T16:18:18.074Z,94196.24
2019-02-28T16:20:47.508Z,94191.34
2019-02-28T16:23:17.001Z,94190.92
2019-02-28T16:25:47.161Z,94191.12
2019-02-28T16:28:17.400Z,94194.87
2019-02-28T16:30:46.826Z,94189.34
2019-02-28T16:33:16.287Z,94200.44
2019-02-28T16:35:46.616Z,94194.80
2019-02-28T16:38:16.879Z,94183.79
2019-02-28T16:40:46.317Z,94187.86
2019-02-28T16:43:17.427Z,94185.22
2019-02-28T16:45:49.221Z,94187.66
2019-02-28T16:48:18.869Z,94180.64
2019-02-28T16:50:50.696Z,94182.09
2019-02-28T16:53:19.572Z,94182.05
2019-02-28T16:55:48.992Z,94181.92
2019-02-28T16:58:21.343Z,94193.48
2019-02-28T17:00:49.593Z,94187.05
2019-02-28T17:03:19.084Z,94185.03
2019-02-28T17:05:48.588Z,94182.66
2019-02-28T17:08:18.637Z,94184.89
2019-02-28T17:10:48.926Z,94176.84
2019-02-28T17:13:40.132Z,94180.18
2019-02-28T17:16:18.577Z,94180.31
2019-02-28T17:18:48.216Z,94170.97
2019-02-28T17:21:18.186Z,94196.58
2019-02-28T17:23:47.722Z,94177.87
2019-02-28T17:26:18.202Z,94172.32
2019-02-28T17:29:06.538Z,94179.17
2019-02-28T17:31:48.310Z,94173.48
2019-02-28T17:34:23.697Z,94181.05
2019-02-28T17:36:51.080Z,94168.23
2019-02-28T17:39:20.559Z,94181.30
2019-02-28T17:41:49.948Z,94173.41
2019-02-28T17:44:54.289Z,94160.80
2019-02-28T17:47:36.756Z,94160.36
2019-02-28T17:50:48.080Z,94149.76
2019-02-28T17:54:10.390Z,94146.84
2019-02-28T17:57:23.924Z,94129.26
2019-02-28T18:00:41.374Z,94130.01
2019-02-28T18:03:48.462Z,94129.81
2019-02-28T18:07:02.815Z,94116.60
2019-02-28T18:10:24.340Z,94102.91
2019-02-28T18:13:20.211Z,94111.13
2019-02-28T18:16:29.863Z,94104.68
2019-02-28T18:19:19.429Z,94105.92
2019-02-28T18:22:51.704Z,94105.92
2019-02-28T18:26:00.259Z,94118.59
2019-02-28T18:29:04.493Z,94107.67
2019-02-28T18:31:34.118Z,94134.92
2019-02-28T18:34:16.982Z,94094.25
2019-02-28T18:36:46.893Z,94118.42
2019-02-28T18:39:16.396Z,94118.05
2019-02-28T18:41:45.859Z,94110.32
2019-02-28T18:44:15.270Z,94108.28
2019-02-28T18:46:44.906Z,94105.00
2019-02-28T18:49:14.356Z,94106.19
2019-02-28T18:51:43.759Z,94111.51
2019-02-28T18:54:13.435Z,94111.95
2019-02-28T18:56:42.988Z,94107.02
2019-02-28T18:59:12.488Z,94119.85
2019-02-28T19:01:42.003Z,94105.72
2019-02-28T19:04:11.533Z,94111.53
2019-02-28T19:06:40.930Z,94090.41
2019-02-28T19:09:24.175Z,94108.36
2019-02-28T19:11:53.677Z,94096.09
2019-02-28T19:14:23.047Z,94138.41
2019-02-28T19:16:52.520Z,94121.81
2019-02-28T19:19:22.027Z,94122.22
2019-02-28T19:21:51.622Z,94118.45
2019-02-28T19:24:21.107Z,94119.64
2019-02-28T19:26:50.584Z,94117.23
2019-02-28T19:29:20.137Z,94138.75
2019-02-28T19:31:49.488Z,94107.86
2019-02-28T19:34:18.968Z,94121.59
2019-02-28T19:36:48.612Z,94107.70
2019-02-28T19:39:18.137Z,94103.03
2019-02-28T19:41:47.605Z,94108.80
2019-02-28T19:44:17.035Z,94111.22
2019-02-28T19:46:46.567Z,94097.95
2019-02-28T19:49:17.029Z,94112.81
2019-02-28T19:51:46.582Z,94089.27
2019-02-28T19:54:16.043Z,94079.36
2019-02-28T19:56:45.554Z,94086.55
2019-02-28T19:59:14.988Z,94070.08
2019-02-28T20:01:45.386Z,94099.72
2019-02-28T20:04:15.562Z,94091.24
2019-02-28T20:06:45.216Z,94089.94
2019-02-28T20:09:14.722Z,94094.78
2019-02-28T20:11:44.213Z,94071.02
2019-02-28T20:14:13.726Z,94081.91
2019-02-28T20:16:43.213Z,94101.02
2019-02-28T20:19:12.639Z,94077.97
2019-02-28T20:21:42.229Z,94071.46
2019-02-28T20:24:11.921Z,94076.94
2019-02-28T20:26:41.399Z,94080.28
2019-02-28T20:29:10.926Z,94096.41
2019-02-28T20:31:40.328Z,94072.80
2019-02-28T20:34:09.920Z,94072.16
2019-02-28T20:36:39.563Z,94072.42
2019-02-28T20:39:10.440Z,94067.01
2019-02-28T20:41:39.963Z,94057.22
2019-02-28T20:44:09.379Z,94062.42
2019-02-28T20:46:39.809Z,94065.91
2019-02-28T20:49:09.687Z,94062.31
2019-02-28T20:51:39.168Z,94079.92
2019-02-28T20:54:08.669Z,94080.22
2019-02-28T20:56:38.125Z,94075.75
2019-02-28T20:59:07.575Z,94079.02
2019-02-28T21:01:37.148Z,94060.14
2019-02-28T21:04:06.770Z,94057.72
2019-02-28T21:06:36.282Z,94063.23
2019-02-28T21:09:07.942Z,94064.41
2019-02-28T21:11:37.442Z,94065.91
2019-02-28T21:14:06.957Z,94075.92
2019-02-28T21:16:36.476Z,94083.60
2019-02-28T21:19:06.145Z,94085.63
2019-02-28T21:21:35.601Z,94074.31
2019-02-28T21:24:05.056Z,94084.30
2019-02-28T21:26:37.326Z,94098.89
2019-02-28T21:29:06.870Z,94083.62
2019-02-28T21:31:36.308Z,94086.47
2019-02-28T21:34:05.871Z,94101.03
2019-02-28T21:36:35.397Z,94100.20
2019-02-28T21:39:09.992Z,94105.03
2019-02-28T21:41:39.492Z,94105.05
2019-02-28T21:44:08.955Z,94114.72
2019-02-28T21:46:38.477Z,94111.34
2019-02-28T21:49:08.116Z,94119.09
2019-02-28T21:51:37.847Z,94115.22
2019-02-28T21:54:07.345Z,94110.52
2019-02-28T21:56:36.830Z,94112.45
2019-02-28T21:59:06.379Z,94114.20
2019-02-28T22:01:35.817Z,94128.36
2019-02-28T22:04:05.278Z,94120.02
2019-02-28T22:06:34.722Z,94119.69
2019-02-28T22:09:05.886Z,94114.91
2019-02-28T22:11:35.448Z,94122.17
2019-02-28T22:14:05.062Z,94123.94
2019-02-28T22:16:34.530Z,94127.64
2019-02-28T22:19:04.178Z,94127.42
2019-02-28T22:21:33.717Z,94117.61
2019-02-28T22:24:03.349Z,94119.90
2019-02-28T22:26:34.136Z,94115.65
2019-02-28T22:29:03.696Z,94111.78
2019-02-28T22:32:04.472Z,94111.77
2019-02-28T22:34:38.859Z,94105.62
2019-02-28T22:37:08.447Z,94097.71
2019-02-28T22:39:37.892Z,94098.70
2019-02-28T22:42:07.437Z,94094.55
2019-02-28T22:44:36.949Z,94099.39
2019-02-28T22:47:06.556Z,94100.67
2019-02-28T22:49:36.138Z,94107.20
2019-02-28T22:52:05.656Z,94112.53
2019-02-28T22:54:35.205Z,94119.15
2019-02-28T22:57:04.689Z,94117.20
2019-02-28T22:59:34.228Z,94123.47
2019-02-28T23:02:03.721Z,94121.80
2019-02-28T23:04:33.180Z,94116.53
2019-02-28T23:07:02.682Z,94112.20
2019-02-28T23:09:32.145Z,94115.23
2019-02-28T23:12:01.710Z,94120.52
2019-02-28T23:14:31.204Z,94116.56
2019-02-28T23:17:00.593Z,94116.41
2019-02-28T23:19:30.082Z,94112.61
2019-02-28T23:21:59.573Z,94114.16
2019-02-28T23:24:29.084Z,94101.59
2019-02-28T23:27:18.302Z,94106.55
2019-02-28T23:30:08.780Z,94108.66
2019-02-28T23:32:45.380Z,94097.02
2019-02-28T23:35:21.546Z,94096.09
2019-02-28T23:37:51.230Z,94094.30
2019-02-28T23:40:20.733Z,94097.72
2019-02-28T23:42:50.222Z,94099.14
2019-02-28T23:45:19.744Z,94100.95
2019-02-28T23:47:49.135Z,94092.44
2019-02-28T23:50:18.614Z,94100.55
2019-02-28T23:52:48.144Z,94107.53
2019-02-28T23:55:17.595Z,94098.67
2019-02-28T23:57:47.199Z,94090.36
